Time;durP1;ratioP1;P1;durP2;ratioP2;P2;SDS_P1;SDS_P2;PMS_P1;PMS_P2;Temp;Humidity;BMP_temperature;BMP_pressure;BME280_temperature;BME280_humidity;BME280_pressure;Samples;Min_cycle;Max_cycle;Signal;HPM_P1;HPM_P2
2021/06/08 00:00:37;;;;;;;4.90;4.40;;;19.10;61.50;;;19.07;44.25;95276.38;5149499;27;20398;-82
2021/06/08 00:03:04;;;;;;;5.05;4.60;;;19.10;61.40;;;19.04;44.15;95269.66;5091432;28;20227;-83
2021/06/08 00:05:31;;;;;;;5.85;5.25;;;19.10;61.30;;;19.09;43.76;95270.81;5059184;28;20217;-82
2021/06/08 00:08:01;;;;;;;5.13;4.72;;;19.10;61.30;;;19.07;44.06;95271.03;5060929;28;20615;-82
2021/06/08 00:10:28;;;;;;;5.00;4.50;;;19.10;61.20;;;19.13;43.52;95274.63;5002940;28;20743;-83
2021/06/08 00:12:54;;;;;;;5.30;4.80;;;19.10;61.20;;;19.14;43.48;95265.56;4970548;28;20206;-82
2021/06/08 00:15:21;;;;;;;5.10;4.70;;;19.10;61.20;;;19.22;43.89;95272.38;4907500;29;20549;-82
2021/06/08 00:17:48;;;;;;;5.90;5.40;;;19.10;61.10;;;19.26;43.89;95271.69;4746157;29;20259;-83
2021/06/08 00:20:26;;;;;;;5.78;5.22;;;19.10;61.10;;;19.29;43.40;95262.41;5150655;27;20376;-83
2021/06/08 00:22:53;;;;;;;6.47;5.82;;;19.10;61.30;;;19.33;43.89;95268.88;5109588;27;20253;-83
2021/06/08 00:25:19;;;;;;;5.15;4.57;;;19.20;61.30;;;19.35;43.73;95272.09;5109828;28;21839;-83
2021/06/08 00:27:46;;;;;;;5.50;5.00;;;19.20;61.40;;;19.33;43.61;95269.69;5077870;28;20205;-82
2021/06/08 00:30:14;;;;;;;6.75;5.00;;;19.20;61.40;;;19.32;43.90;95277.88;5055634;28;20671;-81
2021/06/08 00:32:40;;;;;;;6.28;4.97;;;19.20;61.10;;;19.28;43.76;95277.53;4964104;28;20261;-82
2021/06/08 00:35:08;;;;;;;5.20;4.75;;;19.20;61.40;;;19.28;44.31;95276.75;4925946;28;20203;-82
2021/06/08 00:37:37;;;;;;;6.75;5.07;;;19.30;61.90;;;19.24;44.04;95275.59;4784906;29;21258;-83
2021/06/08 00:41:07;;;;;;;5.32;4.82;;;19.20;62.20;;;19.10;43.69;95267.91;5142912;27;20956;-82
2021/06/08 00:43:34;;;;;;;5.18;4.70;;;19.30;61.30;;;19.05;43.84;95278.44;5106370;28;20222;-82
2021/06/08 00:46:01;;;;;;;5.80;5.25;;;19.20;61.40;;;18.97;44.10;95274.31;5072566;28;20216;-83
2021/06/08 00:48:28;;;;;;;5.95;5.45;;;19.10;61.40;;;18.87;44.30;95269.56;5060271;28;20235;-82
2021/06/08 00:50:55;;;;;;;5.65;5.05;;;19.00;62.30;;;18.77;44.61;95272.00;5031354;28;20327;-82
2021/06/08 00:53:22;;;;;;;6.82;5.38;;;19.00;61.30;;;18.70;44.78;95282.78;4980865;28;20227;-81
2021/06/08 00:55:51;;;;;;;5.72;5.22;;;18.90;61.40;;;18.62;44.42;95274.38;4879636;29;20308;-83
2021/06/08 00:58:19;;;;;;;6.50;5.43;;;18.80;61.70;;;18.51;44.95;95265.38;4812631;29;20732;-82
2021/06/08 01:02:34;;;;;;;5.53;5.03;;;18.80;61.90;;;18.34;45.61;95255.44;5130451;27;20563;-83
2021/06/08 01:05:06;;;;;;;5.85;5.22;;;18.70;62.40;;;18.26;45.97;95260.28;5102212;28;20690;-83
2021/06/08 01:07:33;;;;;;;5.63;5.13;;;18.60;62.40;;;18.17;46.33;95257.97;5059099;28;20214;-83
2021/06/08 01:10:02;;;;;;;6.18;5.57;;;18.50;62.30;;;18.09;47.22;95255.69;5067952;28;20226;-82
2021/06/08 01:12:29;;;;;;;6.40;5.32;;;18.40;62.30;;;17.98;46.82;95256.47;5061852;28;20299;-82
2021/06/08 01:14:56;;;;;;;5.50;5.00;;;18.30;62.30;;;17.90;46.71;95255.75;4950388;28;20227;-82
2021/06/08 01:17:23;;;;;;;6.82;5.28;;;18.30;62.60;;;17.83;46.86;95256.91;4879438;29;20213;-84
2021/06/08 01:22:53;;;;;;;5.68;5.18;;;18.10;63.20;;;17.65;47.25;95260.44;5149028;27;20302;-82
2021/06/08 01:25:20;;;;;;;6.18;5.60;;;18.00;63.00;;;17.57;47.38;95253.63;5096534;28;20204;-82
2021/06/08 01:27:46;;;;;;;6.82;5.65;;;17.90;63.20;;;17.48;47.49;95252.31;5036410;28;20204;-82
2021/06/08 01:30:15;;;;;;;6.28;5.40;;;17.90;63.40;;;17.45;47.33;95258.91;5041651;28;20192;-82
2021/06/08 01:32:44;;;;;;;6.82;5.88;;;17.70;63.20;;;17.37;47.19;95265.34;5046823;28;20229;-82
2021/06/08 01:35:12;;;;;;;6.03;5.43;;;17.70;63.30;;;17.29;47.47;95258.50;4945433;28;20217;-81
2021/06/08 01:37:41;;;;;;;6.25;5.65;;;17.60;63.40;;;17.24;47.78;95262.88;4880143;29;20328;-81
2021/06/08 01:40:09;;;;;;;8.95;6.70;;;17.60;63.80;;;17.19;47.86;95255.59;4724573;29;20244;-82
2021/06/08 01:45:06;;;;;;;6.45;5.85;;;17.50;63.80;;;17.09;47.93;95252.69;5129885;27;20660;-82
2021/06/08 01:47:33;;;;;;;5.60;5.10;;;17.40;64.10;;;17.05;47.57;95259.44;5074738;28;20206;-82
2021/06/08 01:50:01;;;;;;;6.65;6.05;;;17.40;63.90;;;16.99;47.96;95255.03;5075904;28;20233;-81
2021/06/08 01:53:13;;;;;;;6.50;5.80;;;17.30;63.90;;;16.84;47.89;95242.94;5020800;28;20208;-81
2021/06/08 01:55:45;;;;;;;7.35;6.65;;;17.20;64.30;;;16.80;48.46;95247.09;4935512;28;20697;-81
2021/06/08 01:58:37;;;;;;;7.53;6.50;;;17.10;64.70;;;16.75;49.01;95249.59;4932059;28;20226;-81
2021/06/08 02:01:19;;;;;;;7.18;6.47;;;17.10;64.40;;;16.71;49.46;95249.22;4856722;29;20649;-81
2021/06/08 02:06:39;;;;;;;7.47;6.68;;;17.10;65.20;;;16.70;49.83;95249.44;5150433;27;20400;-82
2021/06/08 02:09:25;;;;;;;7.25;5.88;;;17.00;65.20;;;16.70;49.30;95250.25;5094069;28;20257;-82
2021/06/08 02:12:00;;;;;;;6.90;6.30;;;16.90;65.30;;;16.67;49.14;95244.59;5079690;28;20205;-82
2021/06/08 02:14:36;;;;;;;6.15;5.55;;;16.90;65.10;;;16.61;48.95;95239.16;5088230;28;20269;-82
2021/06/08 02:17:14;;;;;;;5.97;5.47;;;16.90;65.20;;;16.58;49.08;95249.38;5060818;28;20214;-82
2021/06/08 02:19:45;;;;;;;6.28;5.75;;;16.80;65.20;;;16.53;48.91;95243.91;4942889;28;20655;-81
2021/06/08 02:22:13;;;;;;;6.18;5.57;;;16.70;65.20;;;16.46;49.21;95255.41;4857127;29;20226;-81
2021/06/08 02:27:13;;;;;;;7.53;6.72;;;16.70;65.20;;;16.35;50.75;95253.47;5150639;27;20378;-81
2021/06/08 02:29:45;;;;;;;7.07;6.38;;;16.70;65.70;;;16.29;50.45;95252.50;5071840;28;20225;-81
2021/06/08 02:32:13;;;;;;;6.30;5.70;;;16.70;65.80;;;16.27;49.81;95251.94;5098246;28;20214;-81
2021/06/08 02:34:42;;;;;;;10.82;6.80;;;16.60;65.30;;;16.23;49.73;95265.81;5072656;28;20724;-81
2021/06/08 02:37:10;;;;;;;6.45;5.85;;;16.50;65.30;;;16.19;49.76;95260.16;4946871;28;20213;-80
2021/06/08 02:39:42;;;;;;;5.97;5.47;;;16.50;65.30;;;16.14;49.74;95263.47;4861888;29;20238;-81
2021/06/08 02:42:12;;;;;;;7.15;6.32;;;16.40;66.00;;;16.10;50.16;95254.34;4815535;29;20218;-81
2021/06/08 02:44:41;;;;;;;7.13;6.38;;;16.40;65.60;;;16.10;50.19;95254.34;4680217;30;20345;-81
2021/06/08 02:47:17;;;;;;;7.20;6.45;;;16.50;65.90;;;16.09;50.60;95260.66;5148491;27;20387;-82
2021/06/08 02:49:46;;;;;;;7.47;6.78;;;16.30;66.00;;;16.11;50.48;95255.97;5068716;28;20233;-81
2021/06/08 02:52:19;;;;;;;7.10;6.40;;;16.40;66.10;;;16.11;51.26;95258.63;5066628;28;20200;-82
2021/06/08 02:54:51;;;;;;;7.63;6.90;;;16.30;66.40;;;16.10;51.72;95261.47;5079803;28;20229;-82
2021/06/08 02:57:20;;;;;;;8.82;7.68;;;16.30;66.50;;;16.13;52.15;95267.13;5004519;28;20219;-82
2021/06/08 02:59:50;;;;;;;8.07;7.28;;;16.30;66.80;;;16.17;52.45;95264.84;4990552;28;20249;-81
2021/06/08 03:02:19;;;;;;;7.65;6.95;;;16.40;67.20;;;16.23;52.76;95268.47;4833548;29;20222;-81
2021/06/08 03:05:31;;;;;;;9.00;8.13;;;16.30;68.10;;;16.30;53.18;95285.09;5150682;27;20963;-81
2021/06/08 03:08:05;;;;;;;9.10;8.20;;;16.40;67.70;;;16.36;53.89;95275.50;5089132;27;20207;-82
2021/06/08 03:10:35;;;;;;;8.95;8.13;;;16.40;68.10;;;16.42;54.33;95274.63;5037801;28;20208;-82
2021/06/08 03:13:07;;;;;;;9.18;8.18;;;16.50;68.40;;;16.48;53.70;95277.19;5066855;28;20223;-82
2021/06/08 03:15:50;;;;;;;8.55;7.75;;;16.50;68.30;;;16.51;53.97;95283.06;5064917;28;20210;-81
2021/06/08 03:18:25;;;;;;;8.25;7.40;;;16.60;68.50;;;16.56;53.62;95277.91;4950806;28;20316;-81
2021/06/08 03:21:10;;;;;;;10.88;7.57;;;16.60;68.40;;;16.59;53.59;95278.28;4936242;28;20229;-81
2021/06/08 03:23:56;;;;;;;8.25;7.40;;;16.50;68.00;;;16.68;53.96;95285.94;5140067;27;20546;-82
2021/06/08 03:26:24;;;;;;;8.75;7.85;;;16.70;68.50;;;16.71;54.19;95283.66;5079290;28;20206;-81
2021/06/08 03:28:53;;;;;;;9.15;8.25;;;16.80;68.60;;;16.83;54.25;95285.56;5066178;28;20248;-82
2021/06/08 03:31:21;;;;;;;8.80;8.00;;;16.80;68.60;;;16.91;53.92;95286.06;5029609;28;20222;-80
2021/06/08 03:33:49;;;;;;;9.18;8.27;;;16.90;68.60;;;16.98;54.20;95290.50;5045854;28;20215;-81
2021/06/08 03:36:17;;;;;;;9.30;8.40;;;17.00;68.90;;;17.03;54.25;95286.16;5041980;28;20200;-81
2021/06/08 03:38:44;;;;;;;8.90;8.10;;;17.00;68.90;;;17.08;54.04;95290.81;4949034;28;20269;-81
2021/06/08 03:41:12;;;;;;;8.90;8.07;;;17.10;68.90;;;17.15;54.18;95301.31;4833715;29;20215;-80
2021/06/08 03:43:51;;;;;;;9.38;8.40;;;17.10;68.90;;;17.20;53.73;95301.44;5138635;27;20853;-80
2021/06/08 03:46:19;;;;;;;8.77;7.93;;;17.20;68.80;;;17.22;53.96;95297.56;5079828;28;20202;-80
2021/06/08 03:48:46;;;;;;;9.18;8.35;;;17.20;68.80;;;17.25;54.50;95291.78;5072223;28;20644;-82
2021/06/08 03:51:13;;;;;;;9.68;8.63;;;17.30;68.90;;;17.32;54.05;95298.84;5062506;28;20692;-81
2021/06/08 03:53:41;;;;;;;9.90;8.55;;;17.30;68.80;;;17.35;53.89;95301.06;5026051;28;20736;-81
2021/06/08 03:56:11;;;;;;;9.65;8.73;;;17.40;68.80;;;17.39;53.82;95287.13;5002050;28;20683;-82
2021/06/08 03:58:39;;;;;;;9.18;8.38;;;17.40;68.90;;;17.42;53.86;95304.44;4942502;28;20221;-82
2021/06/08 04:01:06;;;;;;;8.98;8.18;;;17.40;68.90;;;17.45;54.12;95301.31;4697188;29;20235;-81
2021/06/08 04:03:44;;;;;;;9.25;8.38;;;17.50;68.80;;;17.47;54.50;95303.75;5138737;27;20315;-81
2021/06/08 04:06:22;;;;;;;10.50;9.13;;;17.50;69.00;;;17.45;54.43;95298.66;5086109;28;20205;-83
2021/06/08 04:08:49;;;;;;;9.57;8.57;;;17.50;69.00;;;17.49;54.43;95302.50;5029319;28;20226;-83
2021/06/08 04:11:20;;;;;;;10.38;9.13;;;17.50;69.10;;;17.51;54.33;95297.75;5001773;28;20213;-82
2021/06/08 04:13:46;;;;;;;10.07;8.80;;;17.50;69.20;;;17.52;54.59;95294.09;4944172;28;20241;-82
2021/06/08 04:16:13;;;;;;;9.82;8.93;;;17.60;69.30;;;17.55;54.55;95303.44;4854351;29;20210;-82
2021/06/08 04:18:41;;;;;;;9.82;8.82;;;17.60;69.30;;;17.58;54.28;95298.47;4739513;29;20247;-82
2021/06/08 04:23:58;;;;;;;10.35;9.45;;;17.70;69.40;;;17.61;54.66;95305.19;5122935;27;20581;-83
2021/06/08 04:26:26;;;;;;;11.00;9.07;;;17.70;69.40;;;17.66;54.52;95301.84;5077328;28;20200;-82
2021/06/08 04:28:54;;;;;;;9.75;8.85;;;17.70;69.50;;;17.70;54.77;95301.19;5043491;28;20222;-84
2021/06/08 04:31:25;;;;;;;9.80;8.80;;;17.70;69.40;;;17.70;54.39;95297.69;5053005;28;20217;-83
2021/06/08 04:33:52;;;;;;;10.10;9.10;;;17.80;69.60;;;17.78;54.53;95313.28;4992204;28;20229;-83
2021/06/08 04:36:19;;;;;;;10.05;9.05;;;17.80;69.60;;;17.84;54.49;95301.78;4899853;29;20244;-84
2021/06/08 04:38:46;;;;;;;10.02;9.13;;;17.80;69.60;;;17.86;55.12;95301.56;4805785;29;20237;-86
2021/06/08 04:43:51;;;;;;;10.80;9.90;;;17.80;69.70;;;17.93;54.60;95289.81;5115534;27;21095;-83
2021/06/08 04:46:18;;;;;;;11.73;9.52;;;17.90;69.90;;;17.98;54.65;95293.63;5079675;28;20212;-83
2021/06/08 04:48:47;;;;;;;10.35;9.30;;;17.90;70.00;;;18.06;54.57;95299.41;5106441;27;20667;-83
2021/06/08 04:51:13;;;;;;;10.68;9.68;;;18.00;69.90;;;18.12;54.56;95296.91;5067225;28;20194;-82
2021/06/08 04:53:41;;;;;;;9.70;8.80;;;18.00;69.80;;;18.19;54.18;95298.38;5018973;28;20272;-83
2021/06/08 04:56:08;;;;;;;10.07;9.18;;;18.20;70.00;;;18.24;54.04;95292.41;4869065;28;20220;-82
2021/06/08 04:58:36;;;;;;;8.95;8.13;;;18.20;69.80;;;18.31;54.28;95293.09;4761189;29;20367;-84
2021/06/08 05:01:14;;;;;;;9.07;8.27;;;18.20;69.80;;;18.39;54.05;95297.25;4674667;30;20580;-85
2021/06/08 05:04:03;;;;;;;8.27;7.57;;;18.30;69.80;;;18.47;53.51;95301.38;5129037;27;20400;-84
2021/06/08 05:06:36;;;;;;;7.88;6.95;;;18.30;69.70;;;18.57;52.89;95298.97;5067205;28;20225;-85
2021/06/08 05:09:15;;;;;;;8.18;7.20;;;18.30;69.60;;;18.65;52.83;95303.94;5049861;28;20486;-84
2021/06/08 05:11:56;;;;;;;8.90;7.32;;;18.50;69.60;;;18.72;52.90;95299.31;5050263;28;20191;-85
2021/06/08 05:14:28;;;;;;;11.75;7.30;;;18.50;69.40;;;18.78;52.95;95286.13;4986178;28;20258;-86
2021/06/08 05:16:56;;;;;;;8.68;7.97;;;18.60;69.40;;;18.88;52.61;95295.13;4930659;28;20213;-85
2021/06/08 05:19:24;;;;;;;8.73;7.68;;;18.60;69.20;;;18.95;52.67;95287.03;4794222;29;20247;-84
2021/06/08 05:22:05;;;;;;;8.40;7.70;;;18.70;69.20;;;19.04;52.98;95300.75;5138275;27;20650;-84
2021/06/08 05:24:32;;;;;;;10.43;7.72;;;18.80;69.30;;;19.11;52.62;95300.63;5068437;28;20253;-84
2021/06/08 05:26:59;;;;;;;8.75;7.93;;;18.80;69.20;;;19.21;52.68;95303.47;5082316;28;20201;-85
2021/06/08 05:29:26;;;;;;;8.30;7.50;;;18.90;69.40;;;19.27;52.58;95296.41;5067816;28;20230;-84
2021/06/08 05:31:58;;;;;;;9.32;7.97;;;18.90;69.40;;;19.37;52.41;95307.22;5047106;28;20200;-85
2021/06/08 05:34:26;;;;;;;8.98;8.18;;;19.10;69.40;;;19.46;52.93;95310.34;4984744;28;20223;-85
2021/06/08 05:36:53;;;;;;;9.38;7.88;;;19.10;69.30;;;19.54;52.74;95307.28;4927109;28;20294;-86
2021/06/08 05:39:21;;;;;;;8.05;7.32;;;19.20;69.30;;;19.61;52.06;95310.59;4831409;29;20221;-84
2021/06/08 05:41:55;;;;;;;8.38;7.50;;;19.30;69.20;;;19.68;51.93;95315.78;5150300;27;20383;-84
2021/06/08 05:44:21;;;;;;;7.90;7.22;;;19.40;69.40;;;19.78;52.13;95320.47;5091678;28;20326;-85
2021/06/08 05:46:50;;;;;;;8.52;7.50;;;19.40;69.40;;;19.86;51.86;95324.63;5085791;28;20241;-84
2021/06/08 05:49:17;;;;;;;8.75;7.90;;;19.50;69.20;;;19.93;51.87;95326.09;5082607;28;20587;-85
2021/06/08 05:51:44;;;;;;;8.57;7.78;;;19.60;69.20;;;19.98;51.52;95328.03;4980049;28;20209;-85
2021/06/08 05:54:11;;;;;;;8.48;7.63;;;19.60;69.00;;;20.00;51.52;95320.59;4948011;28;20234;-84
2021/06/08 05:56:38;;;;;;;10.00;8.18;;;19.70;69.80;;;20.07;52.24;95323.94;4868408;29;20249;-83
2021/06/08 05:59:07;;;;;;;9.32;8.32;;;19.80;69.00;;;20.11;51.86;95326.91;4747688;29;20301;-84
2021/06/08 06:01:45;;;;;;;8.57;7.70;;;19.80;69.00;;;20.20;52.27;95325.47;5133966;27;20315;-84
2021/06/08 06:04:18;;;;;;;8.90;8.07;;;19.90;69.00;;;20.28;51.65;95321.59;5104673;28;20336;-84
2021/06/08 06:06:46;;;;;;;8.40;7.60;;;19.90;69.00;;;20.38;51.25;95321.72;5067826;28;20195;-83
2021/06/08 06:09:16;;;;;;;8.20;7.50;;;20.00;68.90;;;20.49;51.11;95325.34;5088221;28;20213;-84
2021/06/08 06:11:47;;;;;;;9.18;7.80;;;20.10;68.90;;;20.57;51.49;95313.50;5050728;28;20630;-84
2021/06/08 06:14:23;;;;;;;9.05;8.23;;;20.20;68.90;;;20.64;50.96;95314.91;4954483;28;20284;-85
2021/06/08 06:16:53;;;;;;;8.75;7.95;;;20.20;68.50;;;20.71;51.01;95314.72;4866052;29;20225;-86
2021/06/08 06:21:42;;;;;;;8.60;7.80;;;20.30;68.40;;;20.86;51.13;95311.50;5150829;27;20408;-84
2021/06/08 06:24:13;;;;;;;9.07;8.27;;;20.50;68.60;;;20.98;51.15;95310.59;5091865;28;20220;-84
2021/06/08 06:26:43;;;;;;;7.93;7.22;;;20.50;68.60;;;21.03;50.59;95307.97;5093904;28;20201;-84
2021/06/08 06:29:15;;;;;;;8.68;7.78;;;20.60;68.40;;;21.14;50.71;95306.25;5065185;28;20219;-84
2021/06/08 06:31:49;;;;;;;8.18;7.43;;;20.70;68.40;;;21.24;50.98;95314.38;5035090;28;20197;-85
2021/06/08 06:34:18;;;;;;;7.70;7.00;;;20.80;68.40;;;21.31;50.65;95306.16;4980123;28;20232;-86
2021/06/08 06:36:48;;;;;;;9.15;8.25;;;20.90;68.40;;;21.42;50.81;95315.88;4905575;29;20211;-84
2021/06/08 06:41:56;;;;;;;8.32;7.53;;;21.00;68.20;;;21.57;50.03;95302.75;5149123;27;20946;-85
2021/06/08 06:44:25;;;;;;;8.52;7.72;;;21.10;68.10;;;21.69;50.20;95307.94;5087331;28;20221;-85
2021/06/08 06:46:52;;;;;;;8.77;7.60;;;21.30;68.40;;;21.78;49.92;95304.81;5065994;28;20303;-84
2021/06/08 06:49:21;;;;;;;10.43;8.05;;;21.30;68.10;;;21.87;49.76;95298.75;5033460;28;20685;-85
2021/06/08 06:51:48;;;;;;;8.23;7.50;;;21.40;68.00;;;22.00;49.63;95307.41;5025421;28;20204;-85
2021/06/08 06:54:16;;;;;;;7.82;7.13;;;21.50;68.00;;;22.09;49.74;95307.75;4935300;28;20714;-84
2021/06/08 06:56:45;;;;;;;7.85;7.15;;;21.60;67.50;;;22.16;48.98;95309.13;4833545;29;20285;-84
2021/06/08 07:01:50;;;;;;;7.57;6.93;;;21.70;67.40;;;22.40;48.85;95311.50;5150926;27;20637;-85
2021/06/08 07:04:18;;;;;;;7.57;6.75;;;21.80;67.00;;;22.49;48.41;95312.59;5091521;28;20605;-84
2021/06/08 07:06:45;;;;;;;8.32;7.45;;;22.00;67.20;;;22.59;48.36;95316.41;5087881;28;20213;-84
2021/06/08 07:09:13;;;;;;;7.55;6.90;;;22.00;66.70;;;22.73;48.01;95308.72;5073652;28;20221;-85
2021/06/08 07:11:44;;;;;;;7.60;6.90;;;22.10;66.70;;;22.79;47.77;95308.50;5024510;28;20203;-84
2021/06/08 07:14:11;;;;;;;7.82;7.10;;;22.20;66.50;;;22.90;47.34;95304.03;4990411;28;20238;-84
2021/06/08 07:16:38;;;;;;;7.10;6.50;;;22.30;66.20;;;23.06;47.58;95312.91;4889536;29;20216;-85
2021/06/08 07:19:06;;;;;;;8.13;6.45;;;22.40;66.20;;;23.17;47.39;95314.59;4603641;30;20256;-84
2021/06/08 07:21:46;;;;;;;6.85;6.10;;;22.50;66.00;;;23.30;47.35;95323.19;5149103;27;20306;-85
2021/06/08 07:24:13;;;;;;;6.70;6.10;;;22.60;66.00;;;23.45;47.00;95320.56;5107138;28;20228;-85
2021/06/08 07:26:40;;;;;;;7.18;6.55;;;22.70;65.60;;;23.63;46.75;95313.13;5079935;28;20210;-84
2021/06/08 07:29:13;;;;;;;6.60;6.00;;;22.80;65.70;;;23.84;46.82;95313.97;5057738;28;20258;-85
2021/06/08 07:32:01;;;;;;;6.50;5.90;;;23.00;65.90;;;24.13;46.51;95316.97;5004921;28;20699;-84
2021/06/08 07:34:56;;;;;;;6.45;5.53;;;23.20;66.00;;;24.43;46.61;95314.53;5018239;28;20713;-85
2021/06/08 07:37:25;;;;;;;6.60;6.00;;;23.40;66.20;;;24.75;45.63;95311.53;4941246;28;21398;-85
2021/06/08 07:41:47;;;;;;;5.82;5.32;;;23.60;65.60;;;25.22;45.27;95314.09;5147085;27;20614;-85
2021/06/08 07:44:31;;;;;;;6.15;5.28;;;24.10;65.50;;;25.50;44.48;95309.97;5082474;28;20229;-84
2021/06/08 07:47:04;;;;;;;5.35;4.88;;;24.30;64.70;;;25.72;43.79;95306.88;5032030;28;20252;-84
2021/06/08 07:49:33;;;;;;;6.13;5.63;;;24.50;64.30;;;25.89;43.11;95314.56;4996136;28;20233;-85
2021/06/08 07:52:04;;;;;;;7.45;5.43;;;24.70;64.00;;;25.96;43.10;95303.47;4968089;28;20223;-84
2021/06/08 07:54:32;;;;;;;7.35;5.40;;;24.90;63.90;;;26.07;43.66;95308.81;4847743;29;20336;-83
2021/06/08 07:57:00;;;;;;;6.10;5.60;;;25.10;63.90;;;26.13;43.38;95307.69;4748430;29;20305;-84
2021/06/08 08:02:00;;;;;;;7.47;5.65;;;25.20;63.80;;;26.29;43.07;95303.81;5135424;27;20315;-84
2021/06/08 08:04:34;;;;;;;6.47;5.88;;;25.50;63.50;;;26.40;43.22;95307.19;5108862;28;20264;-84
2021/06/08 08:07:01;;;;;;;5.57;5.10;;;25.60;63.40;;;26.48;42.91;95313.84;5067352;28;20213;-85
2021/06/08 08:09:30;;;;;;;6.80;6.07;;;25.60;63.60;;;26.47;41.63;95304.19;4964572;28;20264;-86
2021/06/08 08:11:58;;;;;;;7.57;5.65;;;25.70;62.20;;;26.42;42.17;95307.72;4949116;28;20196;-85
2021/06/08 08:14:26;;;;;;;5.68;5.20;;;25.80;62.30;;;26.37;42.51;95310.44;4891575;29;20229;-85
2021/06/08 08:16:57;;;;;;;6.22;5.60;;;25.80;62.30;;;26.39;41.82;95310.97;4801764;29;20211;-84
2021/06/08 08:19:25;;;;;;;6.13;5.50;;;25.80;61.50;;;26.34;42.44;95306.44;4693187;30;20249;-85
2021/06/08 08:22:04;;;;;;;6.55;5.95;;;25.90;61.90;;;26.38;41.48;95312.06;5150817;27;20393;-84
2021/06/08 08:24:32;;;;;;;6.20;5.70;;;25.80;61.30;;;26.35;40.51;95309.91;5095157;28;20279;-85
2021/06/08 08:27:01;;;;;;;5.70;5.20;;;25.90;60.50;;;26.39;41.19;95313.66;5105282;28;20195;-84
2021/06/08 08:29:28;;;;;;;5.43;4.93;;;25.80;61.10;;;26.49;41.36;95316.25;5062700;28;20238;-84
2021/06/08 08:31:54;;;;;;;5.97;5.40;;;25.90;61.30;;;26.61;41.10;95310.50;5004571;28;20207;-85
2021/06/08 08:34:21;;;;;;;5.32;4.85;;;25.90;61.20;;;26.75;41.35;95313.34;4915213;28;20223;-85
2021/06/08 08:36:48;;;;;;;5.90;5.40;;;26.00;61.20;;;26.88;41.21;95311.88;4793519;29;20252;-85
2021/06/08 08:39:15;;;;;;;7.40;5.38;;;26.10;61.40;;;27.00;40.77;95306.06;4675733;29;20333;-85
2021/06/08 08:43:02;;;;;;;5.72;5.22;;;26.20;60.70;;;27.01;39.12;95302.28;5148348;27;20644;-85
2021/06/08 08:45:31;;;;;;;6.15;5.55;;;26.30;60.00;;;27.08;38.74;95307.34;5072079;28;20205;-85
2021/06/08 08:47:59;;;;;;;6.10;5.60;;;26.30;59.60;;;27.11;38.93;95304.88;5067354;28;20209;-85
2021/06/08 08:50:27;;;;;;;5.65;5.20;;;26.40;59.60;;;27.24;39.60;95316.03;5039129;28;20217;-85
2021/06/08 08:53:02;;;;;;;5.65;5.15;;;26.40;60.40;;;27.40;40.13;95309.34;5018395;28;20223;-85
2021/06/08 08:55:33;;;;;;;6.10;5.60;;;26.50;60.50;;;27.50;40.46;95302.25;4932289;28;20215;-85
2021/06/08 08:58:02;;;;;;;6.40;5.80;;;26.60;60.80;;;27.59;39.19;95308.63;4857725;29;20241;-85
2021/06/08 09:00:31;;;;;;;7.65;6.30;;;26.70;59.80;;;27.64;39.24;95316.63;4667748;30;20667;-84
2021/06/08 09:03:06;;;;;;;6.25;5.65;;;26.80;60.30;;;27.71;39.76;95311.69;5147519;27;20397;-85
2021/06/08 09:05:38;;;;;;;5.80;5.30;;;26.90;60.00;;;27.76;39.56;95308.13;5086643;28;20709;-85
2021/06/08 09:08:06;;;;;;;6.22;5.72;;;27.00;60.00;;;27.83;39.19;95310.44;5035206;28;20291;-84
2021/06/08 09:10:35;;;;;;;7.07;5.53;;;27.10;59.50;;;27.88;39.34;95308.47;5034434;28;20240;-85
2021/06/08 09:13:02;;;;;;;5.72;5.22;;;27.20;59.80;;;27.93;39.71;95302.19;4999244;28;20285;-85
2021/06/08 09:15:30;;;;;;;5.35;4.95;;;27.20;60.00;;;28.03;39.55;95307.41;4909599;29;20583;-85
2021/06/08 09:18:04;;;;;;;6.45;4.93;;;27.30;59.20;;;28.15;39.26;95300.78;4854905;29;20270;-84
2021/06/08 09:21:20;;;;;;;5.53;5.03;;;27.40;59.20;;;28.24;38.57;95299.03;5150113;27;21147;-85
2021/06/08 09:23:48;;;;;;;5.75;5.20;;;27.50;59.30;;;28.32;38.95;95301.06;5071180;27;20226;-86
2021/06/08 09:26:16;;;;;;;5.38;4.95;;;27.60;59.20;;;28.46;38.93;95298.38;5073260;28;20298;-85
2021/06/08 09:28:45;;;;;;;5.35;4.88;;;27.70;59.60;;;28.54;38.56;95292.31;5048882;28;20320;-84
2021/06/08 09:31:20;;;;;;;5.88;5.38;;;27.80;58.50;;;28.56;37.60;95292.00;4971631;28;20304;-85
2021/06/08 09:33:52;;;;;;;5.60;5.10;;;27.80;57.70;;;28.60;37.41;95299.22;4853957;29;20241;-84
2021/06/08 09:36:21;;;;;;;4.90;4.50;;;27.90;57.50;;;28.59;36.87;95294.13;4796359;29;20214;-85
2021/06/08 09:41:27;;;;;;;5.13;4.68;;;27.90;56.30;;;28.53;37.37;95287.22;5149310;27;20633;-85
2021/06/08 09:44:18;;;;;;;5.35;4.82;;;27.90;56.60;;;28.50;36.85;95293.19;5075206;28;20235;-86
2021/06/08 09:46:56;;;;;;;5.22;4.72;;;27.90;56.60;;;28.52;36.99;95289.09;5068533;28;20793;-85
2021/06/08 09:49:33;;;;;;;5.32;4.82;;;27.90;56.10;;;28.59;36.25;95276.03;5047171;28;20228;-85
2021/06/08 09:52:06;;;;;;;5.57;5.05;;;27.80;55.50;;;28.67;35.90;95284.53;4989297;28;20299;-86
2021/06/08 09:54:36;;;;;;;6.65;4.78;;;27.90;56.90;;;28.64;34.13;95275.13;4876510;29;20522;-85
2021/06/08 09:57:21;;;;;;;5.32;4.80;;;27.90;54.00;;;28.66;35.23;95274.84;4709421;30;20230;-86
2021/06/08 10:01:40;;;;;;;5.13;4.70;;;27.90;55.20;;;28.79;35.72;95289.47;5146806;27;20646;-85
2021/06/08 10:04:07;;;;;;;6.43;4.22;;;28.00;55.90;;;28.91;36.25;95277.06;5075907;28;20230;-85
2021/06/08 10:06:41;;;;;;;5.38;4.88;;;28.10;56.40;;;29.10;36.43;95275.38;5070402;28;20778;-85
2021/06/08 10:09:12;;;;;;;5.28;4.80;;;28.20;56.50;;;29.22;35.92;95283.75;5066511;28;20228;-86
2021/06/08 10:11:41;;;;;;;5.40;4.90;;;28.30;55.60;;;29.34;36.28;95278.66;5056328;28;20201;-85
2021/06/08 10:14:17;;;;;;;5.68;5.18;;;28.40;55.80;;;29.48;35.97;95283.22;5053388;28;20286;-86
2021/06/08 10:16:45;;;;;;;5.95;5.05;;;28.50;55.80;;;29.60;35.53;95278.13;5024853;28;20215;-86
2021/06/08 10:19:37;;;;;;;5.28;4.68;;;28.70;56.00;;;29.78;35.84;95270.16;5124180;27;20674;-86
2021/06/08 10:22:04;;;;;;;4.93;4.47;;;28.80;55.80;;;29.94;35.74;95276.81;5105328;28;20266;-87
2021/06/08 10:24:32;;;;;;;5.30;4.90;;;29.00;55.00;;;29.95;34.79;95281.13;5044127;28;20243;-86
2021/06/08 10:26:59;;;;;;;5.35;4.85;;;29.10;54.30;;;29.89;35.03;95286.94;5006871;28;20213;-85
2021/06/08 10:29:31;;;;;;;5.53;5.13;;;29.10;53.90;;;29.74;35.34;95280.00;5062935;28;20220;-85
2021/06/08 10:31:58;;;;;;;6.68;5.30;;;29.20;54.10;;;29.67;35.09;95285.81;5017644;28;20211;-85
2021/06/08 10:34:40;;;;;;;5.53;5.13;;;29.10;54.10;;;29.60;35.43;95286.22;4819988;29;20247;-85
2021/06/08 10:37:08;;;;;;;5.50;5.00;;;29.10;54.50;;;29.56;35.63;95285.22;4510225;30;20320;-86
2021/06/08 10:39:46;;;;;;;6.07;5.57;;;29.10;54.40;;;29.48;35.28;95294.03;5132883;27;20336;-84
2021/06/08 10:42:15;;;;;;;5.57;5.05;;;29.10;54.00;;;29.36;35.79;95294.59;5101738;28;20534;-84
2021/06/08 10:44:42;;;;;;;5.82;5.30;;;29.00;53.90;;;29.24;35.03;95293.16;5096610;27;20319;-86
2021/06/08 10:47:45;;;;;;;5.60;5.10;;;28.90;54.00;;;29.13;35.34;95291.78;5096880;28;20208;-84
2021/06/08 10:50:28;;;;;;;6.30;4.88;;;28.80;53.40;;;28.98;35.27;95292.88;5036769;28;20727;-84
2021/06/08 10:52:58;;;;;;;4.95;4.55;;;28.70;53.70;;;28.89;35.27;95281.16;4965953;28;20220;-85
2021/06/08 10:55:45;;;;;;;5.47;4.97;;;28.60;53.90;;;28.80;35.73;95285.69;4871714;29;20213;-85
2021/06/08 10:58:11;;;;;;;6.55;5.43;;;28.60;54.40;;;28.77;36.15;95297.84;4659903;30;20333;-84
2021/06/08 11:00:52;;;;;;;7.32;5.43;;;28.50;54.30;;;28.72;36.11;95295.25;5145567;27;20462;-84
2021/06/08 11:03:52;;;;;;;6.30;5.72;;;28.40;54.50;;;28.57;36.36;95286.31;5053303;28;20308;-82
2021/06/08 11:06:59;;;;;;;6.45;5.85;;;28.30;54.80;;;28.45;36.46;95286.00;5041851;28;20222;-82
2021/06/08 11:09:27;;;;;;;6.63;6.03;;;28.20;55.50;;;28.40;36.31;95275.28;4998645;28;20326;-82
2021/06/08 11:12:08;;;;;;;6.15;5.63;;;28.10;54.80;;;28.33;36.16;95278.41;4937586;28;20573;-82